createdAt,value
2022-11-12T00:00:01.814Z,94810.03
2022-11-12T00:03:23.224Z,94811.13
2022-11-12T00:06:44.666Z,94820.31
2022-11-12T00:10:07.128Z,94816.47
2022-11-12T00:13:28.898Z,94812.13
2022-11-12T00:16:50.958Z,94814.78
2022-11-12T00:20:14.803Z,94817.00
2022-11-12T00:23:36.311Z,94824.47
2022-11-12T00:26:59.052Z,94822.81
2022-11-12T00:30:20.301Z,94823.47
2022-11-12T00:33:45.536Z,94829.09
2022-11-12T00:37:07.446Z,94835.53
2022-11-12T00:40:30.749Z,94833.75
2022-11-12T00:43:53.032Z,94830.59
2022-11-12T00:47:14.947Z,94836.44
2022-11-12T00:50:36.904Z,94833.56
2022-11-12T00:53:59.726Z,94829.28
2022-11-12T00:57:21.918Z,94839.56
2022-11-12T01:00:44.511Z,94831.28
2022-11-12T01:04:07.703Z,94838.13
2022-11-12T01:07:29.291Z,94840.25
2022-11-12T01:10:51.896Z,94835.31
2022-11-12T01:14:13.761Z,94828.97
2022-11-12T01:17:36.340Z,94836.91
2022-11-12T01:21:04.572Z,94832.84
2022-11-12T01:24:27.201Z,94829.09
2022-11-12T01:27:48.485Z,94827.97
2022-11-12T01:31:30.866Z,94825.81
2022-11-12T01:34:53.850Z,94830.66
2022-11-12T01:38:15.945Z,94817.75
2022-11-12T01:41:40.535Z,94820.34
2022-11-12T01:45:01.858Z,94819.97
2022-11-12T01:48:28.716Z,94814.94
2022-11-12T01:51:55.344Z,94805.16
2022-11-12T01:55:24.899Z,94812.59
2022-11-12T01:58:48.349Z,94807.56
2022-11-12T02:02:10.189Z,94795.91
2022-11-12T02:05:33.699Z,94795.97
2022-11-12T02:08:55.238Z,94797.50
2022-11-12T02:12:36.672Z,94793.25
2022-11-12T02:15:58.937Z,94797.47
2022-11-12T02:19:21.238Z,94794.25
2022-11-12T02:22:43.234Z,94790.00
2022-11-12T02:26:05.602Z,94795.88
2022-11-12T02:29:27.823Z,94789.41
2022-11-12T02:32:50.008Z,94777.44
2022-11-12T02:36:11.599Z,94776.41
2022-11-12T02:39:34.461Z,94777.59
2022-11-12T02:42:55.542Z,94778.41
2022-11-12T02:46:17.784Z,94768.41
2022-11-12T02:49:40.414Z,94756.34
2022-11-12T02:53:02.829Z,94750.41
2022-11-12T02:56:25.000Z,94753.25
2022-11-12T02:59:47.004Z,94754.22
2022-11-12T03:03:08.514Z,94749.81
2022-11-12T03:06:31.288Z,94739.81
2022-11-12T03:09:52.944Z,94739.34
2022-11-12T03:13:14.555Z,94742.34
2022-11-12T03:16:35.694Z,94729.16
2022-11-12T03:19:56.749Z,94726.81
2022-11-12T03:23:19.466Z,94732.34
2022-11-12T03:26:41.309Z,94716.72
2022-11-12T03:30:03.606Z,94711.22
2022-11-12T03:33:25.955Z,94704.34
2022-11-12T03:36:47.248Z,94704.47
2022-11-12T03:40:09.049Z,94693.50
2022-11-12T03:43:30.814Z,94693.38
2022-11-12T03:46:52.881Z,94693.78
2022-11-12T03:50:16.320Z,94692.31
2022-11-12T03:53:37.400Z,94676.72
2022-11-12T03:56:59.561Z,94668.34
2022-11-12T04:00:23.712Z,94668.56
2022-11-12T04:03:46.345Z,94656.53
2022-11-12T04:07:28.069Z,94657.38
2022-11-12T04:10:50.275Z,94648.44
2022-11-12T04:14:12.191Z,94651.38
2022-11-12T04:17:52.791Z,94639.63
2022-11-12T04:21:34.923Z,94629.72
2022-11-12T04:25:14.608Z,94624.84
2022-11-12T04:28:36.963Z,94617.56
2022-11-12T04:31:58.542Z,94615.13
2022-11-12T04:35:19.859Z,94599.13
2022-11-12T04:38:41.483Z,94591.03
2022-11-12T04:42:23.183Z,94588.66
2022-11-12T04:45:45.879Z,94587.44
2022-11-12T04:49:07.408Z,94583.91
2022-11-12T04:52:29.962Z,94577.00
2022-11-12T04:55:53.583Z,94578.00
2022-11-12T04:59:15.418Z,94562.34
2022-11-12T05:02:37.533Z,94565.38
2022-11-12T05:06:05.112Z,94559.91
2022-11-12T05:09:29.854Z,94550.81
2022-11-12T05:12:52.062Z,94554.00
2022-11-12T05:16:14.354Z,94551.41
2022-11-12T05:19:36.183Z,94542.88
2022-11-12T05:23:07.090Z,94527.88
2022-11-12T05:26:30.948Z,94524.78
2022-11-12T05:29:52.961Z,94525.13
2022-11-12T05:33:16.319Z,94509.72
2022-11-12T05:36:38.561Z,94513.56
2022-11-12T05:40:00.535Z,94504.81
2022-11-12T05:43:21.761Z,94496.78
2022-11-12T05:46:44.819Z,94487.66
2022-11-12T05:50:07.757Z,94484.88
2022-11-12T05:53:28.995Z,94482.31
2022-11-12T05:56:52.835Z,94482.34
2022-11-12T06:00:15.399Z,94472.19
2022-11-12T06:03:37.043Z,94466.38
2022-11-12T06:06:58.411Z,94469.69
2022-11-12T06:10:20.876Z,94460.91
2022-11-12T06:13:43.814Z,94455.69
2022-11-12T06:17:05.239Z,94452.81
2022-11-12T06:20:27.103Z,94446.94
2022-11-12T06:23:55.756Z,94443.25
2022-11-12T06:27:17.409Z,94434.22
2022-11-12T06:30:39.841Z,94427.63
2022-11-12T06:34:01.110Z,94428.94
2022-11-12T06:37:23.117Z,94429.94
2022-11-12T06:40:45.238Z,94419.91
2022-11-12T06:44:07.468Z,94419.16
2022-11-12T06:47:28.868Z,94418.19
2022-11-12T06:50:51.001Z,94407.38
2022-11-12T06:54:12.852Z,94401.47
2022-11-12T06:57:34.834Z,94407.47
2022-11-12T07:00:55.988Z,94399.78
2022-11-12T07:04:18.586Z,94405.06
2022-11-12T07:07:41.158Z,94409.00
2022-11-12T07:11:03.224Z,94405.94
2022-11-12T07:14:25.504Z,94404.53
2022-11-12T07:17:47.989Z,94407.81
2022-11-12T07:21:12.706Z,94404.81
2022-11-12T07:24:35.256Z,94413.44
2022-11-12T07:27:57.557Z,94404.88
2022-11-12T07:31:21.846Z,94407.06
2022-11-12T07:34:44.496Z,94406.72
2022-11-12T07:38:07.162Z,94404.06
2022-11-12T07:41:29.446Z,94394.47
2022-11-12T07:44:52.054Z,94391.06
2022-11-12T07:48:14.461Z,94388.78
2022-11-12T07:51:37.497Z,94390.53
2022-11-12T07:54:59.740Z,94392.75
2022-11-12T07:58:22.443Z,94392.28
2022-11-12T08:01:45.630Z,94398.94
2022-11-12T08:05:15.459Z,94391.97
2022-11-12T08:08:40.818Z,94393.38
2022-11-12T08:12:03.282Z,94386.75
2022-11-12T08:15:25.389Z,94383.41
2022-11-12T08:18:48.243Z,94387.63
2022-11-12T08:22:10.447Z,94387.09
2022-11-12T08:25:32.693Z,94387.75
2022-11-12T08:28:55.037Z,94387.34
2022-11-12T08:32:18.922Z,94384.25
2022-11-12T08:35:41.530Z,94381.19
2022-11-12T08:39:04.226Z,94369.47
2022-11-12T08:42:26.480Z,94376.44
2022-11-12T08:45:50.866Z,94377.50
2022-11-12T08:49:13.446Z,94371.63
2022-11-12T08:52:35.911Z,94368.41
2022-11-12T08:55:58.899Z,94369.66
2022-11-12T08:59:21.557Z,94370.81
2022-11-12T09:02:43.745Z,94360.66
2022-11-12T09:06:07.473Z,94366.78
2022-11-12T09:09:29.300Z,94363.44
2022-11-12T09:12:53.260Z,94369.19
2022-11-12T09:16:15.715Z,94364.09
2022-11-12T09:19:42.613Z,94358.31
2022-11-12T09:23:09.497Z,94353.97
2022-11-12T09:26:31.946Z,94359.03
2022-11-12T09:29:54.230Z,94352.16
2022-11-12T09:33:18.880Z,94352.16
2022-11-12T09:36:40.927Z,94355.84
2022-11-12T09:40:03.377Z,94352.09
2022-11-12T09:43:46.728Z,94348.44
2022-11-12T09:47:23.211Z,94345.81
2022-11-12T09:50:56.630Z,94346.22
2022-11-12T09:54:25.959Z,94344.19
2022-11-12T09:57:48.289Z,94332.16
2022-11-12T10:01:44.658Z,94338.59
2022-11-12T10:05:29.631Z,94327.72
2022-11-12T10:09:06.235Z,94333.06
2022-11-12T10:12:34.492Z,94333.53
2022-11-12T10:16:35.712Z,94332.06
2022-11-12T10:20:21.953Z,94321.97
2022-11-12T10:23:49.686Z,94328.09
2022-11-12T10:27:37.630Z,94316.50
2022-11-12T10:31:06.636Z,94324.81
2022-11-12T10:34:29.842Z,94331.03
2022-11-12T10:38:05.472Z,94324.81
2022-11-12T10:41:33.310Z,94309.78
2022-11-12T10:44:54.866Z,94316.00
2022-11-12T10:48:34.822Z,94315.91
2022-11-12T10:51:59.348Z,94309.88
2022-11-12T10:55:28.444Z,94301.13
2022-11-12T10:59:12.015Z,94309.38
2022-11-12T11:02:34.160Z,94311.91
2022-11-12T11:06:08.595Z,94314.13
2022-11-12T11:09:31.044Z,94296.38
2022-11-12T11:13:21.531Z,94292.44
2022-11-12T11:16:55.401Z,94300.47
2022-11-12T11:20:25.829Z,94294.25
2022-11-12T11:24:11.964Z,94297.94
2022-11-12T11:27:51.681Z,94304.06
2022-11-12T11:31:28.170Z,94303.31
2022-11-12T11:35:08.633Z,94303.88
2022-11-12T11:38:42.362Z,94307.16
2022-11-12T11:42:04.733Z,94301.69
2022-11-12T11:45:50.629Z,94308.63
2022-11-12T11:49:46.640Z,94301.28
2022-11-12T11:53:21.073Z,94302.00
2022-11-12T11:56:45.233Z,94302.09
2022-11-12T12:00:24.293Z,94298.56
2022-11-12T12:04:13.191Z,94304.16
2022-11-12T12:07:53.273Z,94296.25
2022-11-12T12:11:34.587Z,94298.13
2022-11-12T12:15:16.684Z,94289.78
2022-11-12T12:19:26.946Z,94282.06
2022-11-12T12:23:01.390Z,94273.78
2022-11-12T12:26:47.206Z,94258.94
2022-11-12T12:30:19.510Z,94253.00
2022-11-12T12:33:53.403Z,94256.53
2022-11-12T12:37:47.671Z,94248.09
2022-11-12T12:41:16.326Z,94249.00
2022-11-12T12:45:06.428Z,94245.97
2022-11-12T12:48:33.475Z,94242.69
2022-11-12T12:51:56.658Z,94236.34
2022-11-12T12:55:39.960Z,94244.69
2022-11-12T12:59:08.619Z,94242.41
2022-11-12T13:02:38.199Z,94237.22
2022-11-12T13:06:08.910Z,94229.81
2022-11-12T13:09:30.686Z,94225.88
2022-11-12T13:13:04.021Z,94228.16
2022-11-12T13:16:55.293Z,94234.06
2022-11-12T13:20:32.325Z,94230.59
2022-11-12T13:24:08.549Z,94224.00
2022-11-12T13:27:46.472Z,94232.19
2022-11-12T13:31:27.371Z,94227.50
2022-11-12T13:34:48.988Z,94227.19
2022-11-12T13:38:12.043Z,94226.22
2022-11-12T13:41:53.464Z,94219.84
2022-11-12T13:45:16.259Z,94228.56
2022-11-12T13:48:46.298Z,94225.09
2022-11-12T13:52:07.759Z,94218.34
2022-11-12T13:55:30.935Z,94220.28
2022-11-12T13:58:53.005Z,94225.41
2022-11-12T14:02:27.539Z,94214.91
2022-11-12T14:05:51.178Z,94217.41
2022-11-12T14:09:37.656Z,94204.97
2022-11-12T14:13:37.462Z,94210.84
2022-11-12T14:17:22.199Z,94216.09
2022-11-12T14:20:45.765Z,94214.78
2022-11-12T14:24:13.738Z,94207.03
2022-11-12T14:27:37.078Z,94209.03
2022-11-12T14:31:01.141Z,94204.19
2022-11-12T14:34:31.200Z,94201.25
2022-11-12T14:37:58.525Z,94202.97
2022-11-12T14:41:29.517Z,94189.25
2022-11-12T14:44:52.092Z,94193.00
2022-11-12T14:48:15.111Z,94178.50
2022-11-12T14:51:45.280Z,94181.63
2022-11-12T14:55:12.316Z,94185.56
2022-11-12T14:58:35.206Z,94182.91
2022-11-12T15:02:42.701Z,94181.66
2022-11-12T15:06:11.476Z,94177.09
2022-11-12T15:09:39.206Z,94170.91
2022-11-12T15:13:09.093Z,94162.69
2022-11-12T15:16:33.488Z,94163.19
2022-11-12T15:20:02.626Z,94163.63
2022-11-12T15:23:25.582Z,94160.06
2022-11-12T15:26:51.231Z,94161.41
2022-11-12T15:30:30.853Z,94157.44
2022-11-12T15:33:53.464Z,94162.09
2022-11-12T15:37:21.531Z,94155.72
2022-11-12T15:40:46.251Z,94155.16
2022-11-12T15:44:10.787Z,94152.31
2022-11-12T15:47:32.078Z,94145.69
2022-11-12T15:50:53.888Z,94143.06
2022-11-12T15:54:15.039Z,94140.88
2022-11-12T15:57:45.322Z,94128.31
2022-11-12T16:01:06.995Z,94132.53
2022-11-12T16:04:29.450Z,94126.00
2022-11-12T16:07:51.331Z,94123.81
2022-11-12T16:11:33.580Z,94121.09
2022-11-12T16:14:55.981Z,94116.22
2022-11-12T16:18:18.620Z,94111.44
2022-11-12T16:21:40.330Z,94112.78
2022-11-12T16:25:03.172Z,94116.06
2022-11-12T16:28:25.235Z,94108.91
2022-11-12T16:31:46.425Z,94102.91
2022-11-12T16:35:08.051Z,94101.03
2022-11-12T16:38:29.900Z,94108.53
2022-11-12T16:41:51.694Z,94096.06
2022-11-12T16:45:17.325Z,94094.13
2022-11-12T16:48:39.866Z,94095.59
2022-11-12T16:52:01.140Z,94098.38
2022-11-12T16:55:23.472Z,94107.66
2022-11-12T16:58:44.868Z,94099.81
2022-11-12T17:02:14.876Z,94095.06
2022-11-12T17:05:36.438Z,94097.03
2022-11-12T17:08:58.766Z,94101.28
2022-11-12T17:12:23.442Z,94097.13
2022-11-12T17:15:47.840Z,94095.34
2022-11-12T17:19:11.095Z,94086.22
2022-11-12T17:22:33.076Z,94083.22
2022-11-12T17:26:03.268Z,94089.31
2022-11-12T17:29:24.634Z,94078.50
2022-11-12T17:32:46.637Z,94076.72
2022-11-12T17:36:11.850Z,94083.72
2022-11-12T17:39:33.757Z,94080.00
2022-11-12T17:42:55.167Z,94072.72
2022-11-12T17:46:17.343Z,94058.25
2022-11-12T17:49:38.885Z,94065.56
2022-11-12T17:53:00.219Z,94057.50
2022-11-12T17:56:24.765Z,94053.09
2022-11-12T17:59:46.737Z,94049.47
2022-11-12T18:03:07.570Z,94058.19
2022-11-12T18:06:34.028Z,94041.78
2022-11-12T18:09:56.246Z,94047.78
2022-11-12T18:13:18.259Z,94048.75
2022-11-12T18:16:39.368Z,94054.72
2022-11-12T18:20:01.147Z,94053.78
2022-11-12T18:23:22.867Z,94041.09
2022-11-12T18:26:44.827Z,94048.69
2022-11-12T18:30:07.498Z,94040.28
2022-11-12T18:33:29.893Z,94040.53
2022-11-12T18:36:51.254Z,94036.22
2022-11-12T18:40:13.661Z,94032.50
2022-11-12T18:43:37.356Z,94030.72
2022-11-12T18:46:59.102Z,94032.44
2022-11-12T18:50:20.879Z,94034.22
2022-11-12T18:53:43.836Z,94025.16
2022-11-12T18:57:06.253Z,94024.31
2022-11-12T19:00:28.769Z,94025.66
2022-11-12T19:03:55.913Z,94021.25
2022-11-12T19:07:17.708Z,94016.75
2022-11-12T19:10:39.769Z,94021.03
2022-11-12T19:14:01.303Z,94011.72
2022-11-12T19:17:26.016Z,94013.06
2022-11-12T19:20:51.622Z,94013.16
2022-11-12T19:24:12.930Z,94008.97
2022-11-12T19:27:34.990Z,94004.78
2022-11-12T19:30:55.969Z,94005.50
2022-11-12T19:34:18.649Z,94006.31
2022-11-12T19:37:40.880Z,93996.31
2022-11-12T19:41:20.420Z,94002.25
2022-11-12T19:44:42.903Z,93987.50
2022-11-12T19:48:04.932Z,93994.78
2022-11-12T19:51:26.482Z,93983.13
2022-11-12T19:54:47.958Z,93973.66
2022-11-12T19:58:11.171Z,93974.47
2022-11-12T20:01:32.664Z,93973.00
2022-11-12T20:04:53.766Z,93972.28
2022-11-12T20:08:15.929Z,93967.56
2022-11-12T20:11:38.193Z,93952.31
2022-11-12T20:15:00.579Z,93948.72
2022-11-12T20:18:22.804Z,93951.38
2022-11-12T20:21:45.102Z,93948.59
2022-11-12T20:25:06.618Z,93944.88
2022-11-12T20:28:28.784Z,93947.19
2022-11-12T20:31:51.204Z,93940.25
2022-11-12T20:35:17.721Z,93952.03
2022-11-12T20:38:45.586Z,93942.72
2022-11-12T20:42:08.355Z,93943.50
2022-11-12T20:45:30.960Z,93947.31
2022-11-12T20:48:54.829Z,93939.75
2022-11-12T20:52:17.329Z,93933.56
2022-11-12T20:55:40.720Z,93921.78
2022-11-12T20:59:02.284Z,93917.72
2022-11-12T21:02:24.288Z,93913.31
2022-11-12T21:05:47.102Z,93916.00
2022-11-12T21:09:08.683Z,93912.25
2022-11-12T21:12:31.645Z,93912.78
2022-11-12T21:15:54.509Z,93917.50
2022-11-12T21:19:17.331Z,93910.56
2022-11-12T21:22:39.782Z,93916.88
2022-11-12T21:26:11.054Z,93913.72
2022-11-12T21:29:34.123Z,93905.91
2022-11-12T21:32:56.083Z,93905.72
2022-11-12T21:36:18.346Z,93915.28
2022-11-12T21:39:40.560Z,93908.38
2022-11-12T21:43:03.161Z,93913.94
2022-11-12T21:46:30.579Z,93912.97
2022-11-12T21:49:52.000Z,93915.28
2022-11-12T21:53:15.533Z,93898.28
2022-11-12T21:56:38.800Z,93899.13
2022-11-12T22:00:26.601Z,93900.56
2022-11-12T22:03:43.280Z,93895.44
2022-11-12T22:07:05.262Z,93893.16
2022-11-12T22:10:27.448Z,93885.38
2022-11-12T22:13:50.387Z,93875.50
2022-11-12T22:17:12.755Z,93871.16
2022-11-12T22:20:35.609Z,93879.50
2022-11-12T22:23:58.618Z,93882.84
2022-11-12T22:27:20.503Z,93879.13
2022-11-12T22:30:43.262Z,93875.88
2022-11-12T22:34:05.718Z,93873.47
2022-11-12T22:37:27.832Z,93873.28
2022-11-12T22:40:50.233Z,93869.50
2022-11-12T22:44:11.377Z,93868.22
2022-11-12T22:47:33.883Z,93883.22
2022-11-12T22:51:03.601Z,93876.13
2022-11-12T22:54:25.027Z,93867.91
2022-11-12T22:57:46.598Z,93866.13
2022-11-12T23:01:10.351Z,93874.34
2022-11-12T23:04:32.065Z,93864.13
2022-11-12T23:07:53.264Z,93865.81
2022-11-12T23:11:18.498Z,93863.81
2022-11-12T23:14:40.465Z,93865.19
2022-11-12T23:18:01.941Z,93865.59
2022-11-12T23:21:26.353Z,93865.88
2022-11-12T23:24:48.702Z,93864.09
2022-11-12T23:28:11.069Z,93865.47
2022-11-12T23:31:34.956Z,93872.59
2022-11-12T23:34:56.308Z,93867.53
2022-11-12T23:38:17.404Z,93868.91
2022-11-12T23:41:39.689Z,93882.63
2022-11-12T23:45:01.642Z,93878.66
2022-11-12T23:48:24.737Z,93882.22
2022-11-12T23:51:46.134Z,93884.50
2022-11-12T23:55:07.743Z,93876.47
2022-11-12T23:58:30.392Z,93876.50
